createdAt,value
2018-09-26T00:00:03.895Z,4.10
2018-09-26T00:03:14.968Z,3.90
2018-09-26T00:06:18.528Z,4.30
2018-09-26T00:09:22.121Z,3.90
2018-09-26T00:12:25.687Z,3.93
2018-09-26T00:15:29.305Z,4.60
2018-09-26T00:18:32.831Z,3.70
2018-09-26T00:21:36.482Z,3.67
2018-09-26T00:24:40.002Z,4.67
2018-09-26T00:27:43.668Z,4.03
2018-09-26T00:30:47.352Z,4.40
2018-09-26T00:33:50.964Z,4.30
2018-09-26T00:36:54.612Z,3.60
2018-09-26T00:39:58.124Z,3.53
2018-09-26T00:43:01.622Z,3.53
2018-09-26T00:46:05.331Z,3.73
2018-09-26T00:49:08.999Z,4.10
2018-09-26T00:52:12.567Z,4.10
2018-09-26T00:55:16.137Z,3.90
2018-09-26T00:58:19.671Z,3.80
2018-09-26T01:01:23.192Z,3.80
2018-09-26T01:04:26.831Z,4.40
2018-09-26T01:07:30.327Z,3.53
2018-09-26T01:10:33.848Z,3.67
2018-09-26T01:13:37.538Z,3.50
2018-09-26T01:16:41.188Z,3.77
2018-09-26T01:19:44.706Z,3.43
2018-09-26T01:22:48.214Z,3.63
2018-09-26T01:25:51.883Z,3.70
2018-09-26T01:28:55.352Z,3.23
2018-09-26T01:31:58.896Z,3.80
2018-09-26T01:35:02.879Z,3.50
2018-09-26T01:38:06.594Z,3.57
2018-09-26T01:41:10.143Z,3.23
2018-09-26T01:44:13.810Z,3.20
2018-09-26T01:47:17.307Z,3.90
2018-09-26T01:50:20.847Z,3.47
2018-09-26T01:53:24.382Z,3.60
2018-09-26T01:56:27.891Z,3.40
2018-09-26T01:59:31.433Z,3.20
2018-09-26T02:02:35.269Z,3.80
2018-09-26T02:05:38.856Z,3.53
2018-09-26T02:08:42.465Z,3.73
2018-09-26T02:11:46.009Z,2.90
2018-09-26T02:14:49.594Z,3.20
2018-09-26T02:17:53.128Z,3.10
2018-09-26T02:20:56.678Z,3.37
2018-09-26T02:24:00.389Z,3.20
2018-09-26T02:27:03.924Z,3.23
2018-09-26T02:30:07.707Z,2.87
2018-09-26T02:33:11.320Z,3.03
2018-09-26T02:36:15.613Z,3.20
2018-09-26T02:39:19.129Z,2.83
2018-09-26T02:42:22.737Z,3.17
2018-09-26T02:45:26.304Z,3.30
2018-09-26T02:48:35.076Z,3.40
2018-09-26T02:51:38.739Z,3.23
2018-09-26T02:54:42.234Z,3.20
2018-09-26T02:57:45.754Z,3.20
2018-09-26T03:00:49.407Z,3.40
2018-09-26T03:03:52.997Z,3.17
2018-09-26T03:06:56.598Z,3.03
2018-09-26T03:10:00.172Z,3.00
2018-09-26T03:13:03.720Z,2.90
2018-09-26T03:16:07.363Z,3.17
2018-09-26T03:19:10.906Z,2.90
2018-09-26T03:22:14.484Z,2.70
2018-09-26T03:25:18.109Z,2.60
2018-09-26T03:28:21.661Z,2.90
2018-09-26T03:31:25.238Z,3.30
2018-09-26T03:34:28.707Z,2.63
2018-09-26T03:37:32.310Z,3.60
2018-09-26T03:40:35.867Z,2.80
2018-09-26T03:43:39.440Z,3.20
2018-09-26T03:46:42.904Z,2.70
2018-09-26T03:49:46.447Z,3.17
2018-09-26T03:52:50.095Z,2.80
2018-09-26T03:55:53.640Z,3.23
2018-09-26T03:58:57.174Z,2.80
2018-09-26T04:02:00.764Z,2.83
2018-09-26T04:05:04.541Z,2.73
2018-09-26T04:08:08.049Z,2.83
2018-09-26T04:11:11.583Z,2.83
2018-09-26T04:14:15.140Z,3.20
2018-09-26T04:17:18.754Z,2.87
2018-09-26T04:20:22.392Z,3.00
2018-09-26T04:23:25.859Z,3.17
2018-09-26T04:26:29.628Z,3.20
2018-09-26T04:29:33.093Z,2.80
2018-09-26T04:32:36.899Z,3.50
2018-09-26T04:35:40.348Z,2.90
2018-09-26T04:38:44.789Z,3.00
2018-09-26T04:41:48.280Z,2.70
2018-09-26T04:44:51.811Z,3.43
2018-09-26T04:47:55.448Z,3.13
2018-09-26T04:50:59.046Z,3.30
2018-09-26T04:54:02.979Z,3.03
2018-09-26T04:57:06.556Z,2.90
2018-09-26T05:00:10.121Z,2.73
2018-09-26T05:03:13.687Z,2.97
2018-09-26T05:06:17.293Z,2.60
2018-09-26T05:09:20.794Z,3.40
2018-09-26T05:12:24.440Z,2.87
2018-09-26T05:15:28.135Z,3.20
2018-09-26T05:18:31.674Z,2.63
2018-09-26T05:21:35.268Z,2.70
2018-09-26T05:24:38.815Z,3.37
2018-09-26T05:27:42.394Z,3.27
2018-09-26T05:30:45.950Z,3.43
2018-09-26T05:33:50.794Z,2.70
2018-09-26T05:36:54.417Z,3.00
2018-09-26T05:39:57.995Z,3.00
2018-09-26T05:43:01.481Z,3.07
2018-09-26T05:46:05.046Z,2.77
2018-09-26T05:49:08.586Z,3.30
2018-09-26T05:52:12.316Z,2.80
2018-09-26T05:55:15.994Z,2.20
2018-09-26T05:58:19.479Z,2.43
2018-09-26T06:01:23.071Z,2.90
2018-09-26T06:04:26.576Z,2.47
2018-09-26T06:07:30.116Z,3.13
2018-09-26T06:10:33.745Z,2.90
2018-09-26T06:13:37.185Z,3.10
2018-09-26T06:16:40.820Z,2.93
2018-09-26T06:19:44.409Z,2.40
2018-09-26T06:22:47.934Z,2.90
2018-09-26T06:25:51.476Z,2.70
2018-09-26T06:28:54.987Z,2.80
2018-09-26T06:31:58.590Z,2.83
2018-09-26T06:35:02.198Z,2.73
2018-09-26T06:38:05.732Z,2.83
2018-09-26T06:41:09.275Z,2.80
2018-09-26T06:44:12.851Z,2.57
2018-09-26T06:47:16.355Z,3.50
2018-09-26T06:50:19.824Z,2.90
2018-09-26T06:53:23.444Z,2.53
2018-09-26T06:56:26.907Z,2.70
2018-09-26T06:59:30.490Z,2.70
2018-09-26T07:02:34.130Z,2.83
2018-09-26T07:05:37.779Z,2.43
2018-09-26T07:08:41.338Z,2.73
2018-09-26T07:11:44.866Z,2.83
2018-09-26T07:14:48.490Z,3.20
2018-09-26T07:17:52.232Z,2.93
2018-09-26T07:20:55.871Z,2.90
2018-09-26T07:23:59.362Z,3.00
2018-09-26T07:27:02.891Z,3.00
2018-09-26T07:30:06.545Z,3.10
2018-09-26T07:33:10.017Z,3.73
2018-09-26T07:36:13.562Z,3.07
2018-09-26T07:39:17.146Z,3.17
2018-09-26T07:42:20.647Z,2.50
2018-09-26T07:45:24.243Z,2.83
2018-09-26T07:48:27.743Z,2.60
2018-09-26T07:51:31.558Z,2.83
2018-09-26T07:54:35.086Z,3.00
2018-09-26T07:57:38.901Z,2.90
2018-09-26T08:00:42.418Z,3.17
2018-09-26T08:03:45.987Z,3.00
2018-09-26T08:06:49.817Z,3.03
2018-09-26T08:09:53.351Z,3.10
2018-09-26T08:12:57.028Z,2.70
2018-09-26T08:16:00.584Z,2.53
2018-09-26T08:19:04.149Z,3.20
2018-09-26T08:22:07.772Z,2.57
2018-09-26T08:25:11.433Z,2.57
2018-09-26T08:28:15.029Z,2.60
2018-09-26T08:31:18.627Z,2.60
2018-09-26T08:34:22.152Z,2.80
2018-09-26T08:37:25.631Z,2.60
2018-09-26T08:40:29.247Z,2.87
2018-09-26T08:43:32.942Z,3.07
2018-09-26T08:46:36.508Z,2.87
2018-09-26T08:49:40.132Z,2.57
2018-09-26T08:52:43.781Z,2.77
2018-09-26T08:55:47.423Z,2.97
2018-09-26T08:58:51.097Z,2.83
2018-09-26T09:01:54.642Z,2.67
2018-09-26T09:04:58.231Z,3.00
2018-09-26T09:08:02.348Z,2.87
2018-09-26T09:11:05.928Z,3.37
2018-09-26T09:14:09.572Z,2.73
2018-09-26T09:17:13.141Z,3.10
2018-09-26T09:20:16.871Z,2.80
2018-09-26T09:23:20.593Z,3.20
2018-09-26T09:26:24.242Z,3.20
2018-09-26T09:29:27.832Z,3.30
2018-09-26T09:32:31.541Z,3.27
2018-09-26T09:35:35.048Z,2.83
2018-09-26T09:38:38.626Z,2.93
2018-09-26T09:41:42.146Z,2.67
2018-09-26T09:44:45.664Z,2.87
2018-09-26T09:47:49.192Z,2.80
2018-09-26T09:50:52.736Z,2.90
2018-09-26T09:53:56.277Z,2.60
2018-09-26T09:56:59.820Z,3.00
2018-09-26T10:00:03.557Z,2.77
2018-09-26T10:03:07.376Z,2.70
2018-09-26T10:06:10.834Z,3.03
2018-09-26T10:09:14.342Z,2.80
2018-09-26T10:12:17.846Z,2.60
2018-09-26T10:15:21.406Z,3.00
2018-09-26T10:18:24.974Z,2.97
2018-09-26T10:21:28.468Z,2.50
2018-09-26T10:24:32.015Z,3.00
2018-09-26T10:27:35.563Z,2.90
2018-09-26T10:30:39.067Z,3.03
2018-09-26T10:33:42.633Z,2.90
2018-09-26T10:36:46.139Z,2.90
2018-09-26T10:39:49.699Z,3.10
2018-09-26T10:42:53.244Z,3.17
2018-09-26T10:45:56.862Z,2.70
2018-09-26T10:49:00.507Z,2.80
2018-09-26T10:52:03.978Z,2.80
2018-09-26T10:55:07.530Z,2.57
2018-09-26T10:58:11.152Z,3.07
2018-09-26T11:01:14.784Z,2.80
2018-09-26T11:04:18.360Z,2.80
2018-09-26T11:07:22.328Z,2.80
2018-09-26T11:10:25.984Z,2.93
2018-09-26T11:13:29.415Z,3.10
2018-09-26T11:16:32.945Z,3.20
2018-09-26T11:19:36.433Z,2.83
2018-09-26T11:22:40.038Z,2.87
2018-09-26T11:25:43.650Z,3.23
2018-09-26T11:28:47.320Z,3.17
2018-09-26T11:31:50.829Z,2.57
2018-09-26T11:34:54.403Z,3.07
2018-09-26T11:37:57.989Z,3.10
2018-09-26T11:41:01.509Z,3.00
2018-09-26T11:44:05.248Z,2.80
2018-09-26T11:47:09.117Z,3.03
2018-09-26T11:50:12.830Z,3.67
2018-09-26T11:53:16.379Z,3.10
2018-09-26T11:56:20.149Z,2.80
2018-09-26T11:59:23.681Z,2.87
2018-09-26T12:02:27.387Z,3.23
2018-09-26T12:05:30.845Z,3.43
2018-09-26T12:08:34.608Z,3.00
2018-09-26T12:11:38.261Z,3.30
2018-09-26T12:14:41.783Z,2.90
2018-09-26T12:17:45.319Z,3.07
2018-09-26T12:20:48.910Z,3.20
2018-09-26T12:23:52.401Z,3.00
2018-09-26T12:26:55.942Z,3.50
2018-09-26T12:29:59.400Z,2.63
2018-09-26T12:33:02.938Z,3.20
2018-09-26T12:36:06.459Z,3.20
2018-09-26T12:39:11.000Z,3.37
2018-09-26T12:42:14.583Z,2.87
2018-09-26T12:45:18.130Z,3.20
2018-09-26T12:48:21.776Z,3.30
2018-09-26T12:51:25.260Z,3.40
2018-09-26T12:54:28.822Z,3.10
2018-09-26T12:57:32.436Z,3.43
2018-09-26T13:00:35.992Z,3.57
2018-09-26T13:03:44.498Z,2.93
2018-09-26T13:06:48.134Z,3.70
2018-09-26T13:09:51.693Z,3.20
2018-09-26T13:12:55.270Z,3.30
2018-09-26T13:15:58.837Z,3.33
2018-09-26T13:19:02.465Z,3.10
2018-09-26T13:22:06.009Z,3.40
2018-09-26T13:25:09.602Z,3.20
2018-09-26T13:28:13.346Z,2.90
2018-09-26T13:31:16.995Z,3.20
2018-09-26T13:34:20.691Z,3.37
2018-09-26T13:37:24.229Z,2.73
2018-09-26T13:40:28.527Z,3.30
2018-09-26T13:43:32.080Z,3.27
2018-09-26T13:46:35.778Z,3.50
2018-09-26T13:49:39.466Z,3.27
2018-09-26T13:52:43.035Z,2.80
2018-09-26T13:55:46.527Z,2.93
2018-09-26T13:58:50.193Z,3.30
2018-09-26T14:01:53.692Z,2.50
2018-09-26T14:04:57.382Z,2.70
2018-09-26T14:08:01.280Z,2.50
2018-09-26T14:11:04.828Z,2.70
2018-09-26T14:14:08.389Z,2.70
2018-09-26T14:17:11.980Z,3.10
2018-09-26T14:20:15.642Z,2.90
2018-09-26T14:23:19.313Z,3.00
2018-09-26T14:26:22.980Z,3.10
2018-09-26T14:29:27.036Z,3.17
2018-09-26T14:32:31.607Z,2.87
2018-09-26T14:35:35.250Z,2.97
2018-09-26T14:38:39.049Z,2.70
2018-09-26T14:41:42.621Z,2.93
2018-09-26T14:44:46.250Z,3.00
2018-09-26T14:47:49.880Z,3.20
2018-09-26T14:50:53.511Z,2.57
2018-09-26T14:53:57.365Z,2.93
2018-09-26T14:57:00.926Z,3.07
2018-09-26T15:00:04.717Z,2.97
2018-09-26T15:03:08.215Z,3.17
2018-09-26T15:06:12.031Z,3.10
2018-09-26T15:09:15.625Z,3.03
2018-09-26T15:12:19.171Z,3.10
2018-09-26T15:15:22.768Z,3.20
2018-09-26T15:18:26.479Z,3.47
2018-09-26T15:21:30.124Z,3.07
2018-09-26T15:24:33.671Z,3.67
2018-09-26T15:27:37.224Z,3.00
2018-09-26T15:30:40.754Z,3.80
2018-09-26T15:33:44.476Z,3.70
2018-09-26T15:36:47.997Z,3.17
2018-09-26T15:39:51.615Z,3.40
2018-09-26T15:42:55.245Z,3.30
2018-09-26T15:45:58.791Z,2.67
2018-09-26T15:49:02.426Z,2.90
2018-09-26T15:52:06.044Z,2.97
2018-09-26T15:55:09.764Z,3.13
2018-09-26T15:58:13.473Z,3.20
2018-09-26T16:01:17.073Z,2.90
2018-09-26T16:04:20.833Z,3.10
2018-09-26T16:07:24.460Z,2.97
2018-09-26T16:10:28.038Z,3.07
2018-09-26T16:13:31.572Z,3.10
2018-09-26T16:16:35.239Z,3.13
2018-09-26T16:19:38.846Z,3.17
2018-09-26T16:22:42.559Z,3.30
2018-09-26T16:25:46.308Z,3.13
2018-09-26T16:28:49.864Z,2.93
2018-09-26T16:31:53.480Z,3.30
2018-09-26T16:34:57.064Z,3.60
2018-09-26T16:38:00.758Z,3.13
2018-09-26T16:41:04.554Z,2.70
2018-09-26T16:44:08.176Z,3.00
2018-09-26T16:47:11.769Z,3.27
2018-09-26T16:50:15.349Z,3.30
2018-09-26T16:53:18.997Z,2.43
2018-09-26T16:56:22.714Z,2.90
2018-09-26T16:59:26.202Z,3.10
2018-09-26T17:02:29.739Z,3.00
2018-09-26T17:05:33.457Z,3.17
2018-09-26T17:08:37.483Z,2.70
2018-09-26T17:11:41.109Z,2.93
2018-09-26T17:14:44.681Z,3.13
2018-09-26T17:17:48.243Z,3.03
2018-09-26T17:20:51.849Z,3.47
2018-09-26T17:23:55.420Z,3.23
2018-09-26T17:26:58.949Z,3.03
2018-09-26T17:30:02.596Z,3.50
2018-09-26T17:33:06.271Z,3.23
2018-09-26T17:36:09.969Z,3.80
2018-09-26T17:39:13.555Z,3.43
2018-09-26T17:42:17.197Z,3.50
2018-09-26T17:45:20.870Z,3.80
2018-09-26T17:48:24.449Z,3.53
2018-09-26T17:51:28.064Z,4.20
2018-09-26T17:54:31.936Z,3.70
2018-09-26T17:57:35.485Z,3.83
2018-09-26T18:00:39.143Z,4.70
2018-09-26T18:03:42.694Z,4.03
2018-09-26T18:06:46.245Z,4.07
2018-09-26T18:09:49.821Z,3.60
2018-09-26T18:12:53.377Z,4.03
2018-09-26T18:15:57.079Z,3.97
2018-09-26T18:19:00.768Z,3.70
2018-09-26T18:22:04.458Z,4.13
2018-09-26T18:25:08.018Z,3.93
2018-09-26T18:28:11.642Z,3.80
2018-09-26T18:31:15.272Z,4.20
2018-09-26T18:34:18.904Z,4.10
2018-09-26T18:37:22.882Z,4.03
2018-09-26T18:40:26.506Z,3.83
2018-09-26T18:43:30.044Z,4.40
2018-09-26T18:46:33.656Z,4.03
2018-09-26T18:49:37.416Z,4.70
2018-09-26T18:52:41.047Z,4.43
2018-09-26T18:55:44.680Z,4.17
2018-09-26T18:58:48.432Z,4.00
2018-09-26T19:01:51.933Z,3.80
2018-09-26T19:04:55.671Z,4.27
2018-09-26T19:07:59.047Z,4.30
2018-09-26T19:18:26.724Z,4.40
2018-09-26T19:21:30.400Z,4.40
2018-09-26T19:24:34.106Z,4.30
2018-09-26T19:27:37.629Z,4.27
2018-09-26T19:30:41.330Z,4.97
2018-09-26T19:33:45.022Z,5.10
2018-09-26T19:36:48.628Z,4.13
2018-09-26T19:39:52.248Z,4.80
2018-09-26T19:42:55.795Z,4.03
2018-09-26T19:45:59.442Z,5.00
2018-09-26T19:49:03.256Z,4.73
2018-09-26T19:52:06.871Z,4.77
2018-09-26T19:55:10.480Z,4.30
2018-09-26T19:58:14.143Z,5.37
2018-09-26T20:01:17.719Z,5.03
2018-09-26T20:04:21.379Z,4.60
2018-09-26T20:07:25.023Z,4.70
2018-09-26T20:10:28.700Z,4.73
2018-09-26T20:13:32.356Z,4.73
2018-09-26T20:16:35.853Z,4.73
2018-09-26T20:19:39.571Z,4.80
2018-09-26T20:22:43.234Z,4.60
2018-09-26T20:25:46.882Z,4.83
2018-09-26T20:28:50.701Z,4.33
2018-09-26T20:31:54.461Z,5.37
2018-09-26T20:34:58.162Z,4.80
2018-09-26T20:38:02.870Z,4.50
2018-09-26T20:41:06.457Z,4.87
2018-09-26T20:44:10.057Z,4.90
2018-09-26T20:47:13.735Z,5.20
2018-09-26T20:50:17.505Z,4.50
2018-09-26T20:53:21.169Z,5.17
2018-09-26T20:56:24.695Z,4.67
2018-09-26T20:59:28.411Z,4.50
2018-09-26T21:02:32.070Z,5.17
2018-09-26T21:05:35.833Z,5.17
2018-09-26T21:08:39.369Z,4.57
2018-09-26T21:11:43.078Z,4.63
2018-09-26T21:14:46.628Z,5.57
2018-09-26T21:17:50.293Z,4.60
2018-09-26T21:20:53.913Z,4.40
2018-09-26T21:23:57.478Z,5.23
2018-09-26T21:27:01.052Z,5.13
2018-09-26T21:30:04.984Z,5.60
2018-09-26T21:33:08.989Z,5.70
2018-09-26T21:36:12.512Z,5.70
2018-09-26T21:39:16.858Z,4.90
2018-09-26T21:42:20.406Z,4.97
2018-09-26T21:45:23.917Z,4.73
2018-09-26T21:48:27.531Z,4.90
2018-09-26T21:51:31.087Z,5.43
2018-09-26T21:54:34.598Z,5.60
2018-09-26T21:57:38.131Z,4.93
2018-09-26T22:00:46.864Z,5.13
2018-09-26T22:03:50.567Z,5.20
2018-09-26T22:06:54.210Z,5.30
2018-09-26T22:09:57.940Z,5.00
2018-09-26T22:13:01.525Z,6.30
2018-09-26T22:16:05.282Z,5.40
2018-09-26T22:19:08.858Z,5.20
2018-09-26T22:22:12.509Z,6.10
2018-09-26T22:25:16.454Z,5.87
2018-09-26T22:28:20.094Z,5.70
2018-09-26T22:31:23.790Z,4.90
2018-09-26T22:34:27.436Z,5.10
2018-09-26T22:37:31.069Z,5.27
2018-09-26T22:40:34.980Z,5.47
2018-09-26T22:43:38.652Z,5.23
2018-09-26T22:46:42.294Z,5.50
2018-09-26T22:49:45.879Z,5.67
2018-09-26T22:52:49.457Z,5.70
2018-09-26T22:55:53.177Z,5.33
2018-09-26T22:58:56.974Z,5.57
2018-09-26T23:02:00.582Z,5.77
2018-09-26T23:05:04.276Z,5.43
2018-09-26T23:08:07.857Z,6.50
2018-09-26T23:11:11.594Z,6.03
2018-09-26T23:14:15.252Z,5.97
2018-09-26T23:17:18.906Z,6.17
2018-09-26T23:20:22.608Z,5.60
2018-09-26T23:23:26.306Z,6.00
2018-09-26T23:26:29.996Z,6.50
2018-09-26T23:29:33.596Z,5.80
2018-09-26T23:32:37.196Z,7.20
2018-09-26T23:35:40.893Z,6.47
2018-09-26T23:38:44.557Z,6.93
2018-09-26T23:41:48.307Z,6.00
2018-09-26T23:44:52.015Z,6.00
2018-09-26T23:47:55.755Z,6.80
2018-09-26T23:50:59.466Z,6.70
2018-09-26T23:54:03.271Z,6.10
2018-09-26T23:57:06.907Z,6.60
